Station History

Weather Underground - logo

Station Historical Data
Daily Summary for January 16, 2018 Units:  Metric    English   Both
« Previous Day
Next Day »
Daily Weekly Monthly Yearly Custom
  High: Low: Average:
Temperature: 13.3 °C 7.7 °C 10.1 °C
Dew Point: 11.6 °C 7.1 °C 9.4 °C
Humidity: 97 % 89 % 96 %
Wind Speed: 3.7 km/h 0 km/h 0.8 km/h
Wind Gust: 3.7 km/h - -
Wind:- - South
Pressure: 1025.3 hPa 1020.9 hPa -
Precipitation: 0.25 mm    
Historical Graphs
 
 
Tabular Data for January 16, 2018
Time Temperature Dew Point Pressure Wind Wind Speed Wind Gust Humidity Rainfall Rate (Hourly)
00:28 8.3 °C 7.9 °C 1020.9 hPa Calm     97 % 0 mm
00:37 7.8 °C 7.2 °C 1021.2 hPa Calm     96 % 0 mm
00:43 7.7 °C 7.1 °C 1021.2 hPa Calm     96 % 0 mm
00:50 7.8 °C 7.2 °C 1021.2 hPa SE 1.9 km/h   96 % 0 mm
01:05 7.8 °C 7.2 °C 1021.2 hPa Calm     96 % 0 mm
01:18 8 °C 7.6 °C 1021.2 hPa Calm     97 % 0 mm
01:24 8.1 °C 7.6 °C 1021.2 hPa Calm     97 % 0 mm
01:30 8.1 °C 7.6 °C 1021.2 hPa SE 1.9 km/h 1.9 km/h 97 % 0 mm
01:51 7.9 °C 7.3 °C 1021.9 hPa Calm     96 % 0 mm
01:56 7.9 °C 7.3 °C 1021.9 hPa Calm     96 % 0 mm
01:57 7.9 °C 7.3 °C 1021.9 hPa Calm     96 % 0 mm
02:23 7.7 °C 7.1 °C 1022.2 hPa Calm     96 % 0 mm
02:29 7.8 °C 7.3 °C 1022.2 hPa Calm     97 % 0 mm
02:36 7.8 °C 7.3 °C 1022.2 hPa ESE 1.9 km/h 1.9 km/h 97 % 0 mm
02:41 7.8 °C 7.4 °C 1022.2 hPa ESE 1.9 km/h 1.9 km/h 97 % 0 mm
03:06 8.1 °C 7.6 °C 1021.9 hPa ESE 1.9 km/h 1.9 km/h 97 % 0 mm
03:22 8.1 °C 7.6 °C 1022.2 hPa Calm     97 % 0 mm
03:38 8.1 °C 7.7 °C 1021.9 hPa Calm     97 % 0 mm
03:54 8.2 °C 7.8 °C 1022.2 hPa ESE 1.9 km/h 1.9 km/h 97 % 0.25 mm
04:16 8.3 °C 7.9 °C 1022.2 hPa Calm     97 % 0.25 mm
04:30 8.4 °C 7.9 °C 1022.2 hPa Calm     97 % 0.25 mm
04:37 8.4 °C 8 °C 1022.2 hPa Calm     97 % 0.25 mm
04:42 8.4 °C 7.9 °C 1021.9 hPa Calm     97 % 0.25 mm
04:51 8.4 °C 8 °C 1022.9 hPa Calm     97 % 0 mm
05:05 8.4 °C 8 °C 1022.6 hPa Calm     97 % 0 mm
05:13 8.4 °C 8 °C 1022.6 hPa Calm     97 % 0 mm
05:26 8.4 °C 8 °C 1022.6 hPa Calm     97 % 0 mm
05:42 8.4 °C 8 °C 1022.9 hPa Calm     97 % 0 mm
05:50 8.5 °C 8.1 °C 1022.9 hPa ESE 1.9 km/h 1.9 km/h 97 % 0 mm
05:55 8.5 °C 8.1 °C 1022.9 hPa ESE 3.7 km/h 3.7 km/h 97 % 0 mm
06:01 8.6 °C 8.1 °C 1022.9 hPa Calm     97 % 0 mm
06:07 8.6 °C 8.2 °C 1023.2 hPa Calm     97 % 0 mm
06:33 8.6 °C 8.2 °C 1023.6 hPa Calm     97 % 0 mm
06:40 8.6 °C 8.1 °C 1023.6 hPa Calm     97 % 0 mm
06:52 8.6 °C 8.2 °C 1023.6 hPa Calm     97 % 0 mm
07:03 8.7 °C 8.2 °C 1023.2 hPa Calm     97 % 0 mm
07:09 8.7 °C 8.2 °C 1023.2 hPa ESE 1.9 km/h   97 % 0 mm
07:17 8.7 °C 8.2 °C 1023.2 hPa ESE 1.9 km/h 1.9 km/h 97 % 0 mm
07:34 8.6 °C 8.2 °C 1023.2 hPa ESE 1.9 km/h   97 % 0 mm
07:42 8.6 °C 8.1 °C 1023.2 hPa ESE 1.9 km/h   97 % 0 mm
07:49 8.6 °C 8.1 °C 1022.9 hPa Calm     97 % 0 mm
07:56 8.6 °C 8.1 °C 1022.9 hPa ESE 1.9 km/h   97 % 0 mm
08:12 8.6 °C 8.1 °C 1022.9 hPa Calm     97 % 0 mm
08:17 8.6 °C 8.1 °C 1022.6 hPa Calm     97 % 0 mm
08:29 8.7 °C 8.2 °C 1022.9 hPa SE 3.7 km/h 3.7 km/h 97 % 0 mm
08:47 9.2 °C 8.7 °C 1022.9 hPa Calm     97 % 0 mm
08:58 9.4 °C 8.9 °C 1023.6 hPa NW 1.9 km/h 1.9 km/h 97 % 0 mm
09:15 9.6 °C 9.1 °C 1024.3 hPa NW 1.9 km/h 1.9 km/h 97 % 0 mm
09:30 9.8 °C 9.4 °C 1023.9 hPa Calm     97 % 0 mm
09:38 9.8 °C 9.4 °C 1024.3 hPa Calm     97 % 0 mm
09:55 9.8 °C 9.4 °C 1024.9 hPa WNW 1.9 km/h   97 % 0 mm
10:02 9.8 °C 9.4 °C 1025.3 hPa WNW 1.9 km/h 1.9 km/h 97 % 0 mm
10:17 9.8 °C 9.3 °C 1025.3 hPa WNW 1.9 km/h 1.9 km/h 97 % 0 mm
10:30 9.9 °C 9.5 °C 1024.9 hPa SSE 1.9 km/h   97 % 0 mm
10:50 10.2 °C 9.7 °C 1025.3 hPa Calm     97 % 0 mm
11:12 10.5 °C 10.1 °C 1024.9 hPa SE 1.9 km/h   97 % 0 mm
11:26 10.8 °C 10.3 °C 1024.9 hPa SE 1.9 km/h 1.9 km/h 97 % 0 mm
11:34 10.9 °C 10.4 °C 1024.6 hPa Calm     97 % 0 mm
11:40 10.8 °C 10.4 °C 1024.6 hPa Calm     97 % 0 mm
11:46 10.9 °C 10.5 °C 1024.6 hPa Calm     97 % 0 mm
11:54 11 °C 10.6 °C 1024.3 hPa Calm     97 % 0 mm
12:05 11.1 °C 10.4 °C 1023.9 hPa SSE 1.9 km/h   96 % 0 mm
12:14 11.2 °C 10.6 °C 1023.9 hPa Calm     96 % 0 mm
12:29 11.6 °C 10.8 °C 1023.6 hPa Calm     95 % 0 mm
12:42 12.1 °C 11.2 °C 1023.6 hPa SE 3.2 km/h 3.2 km/h 94 % 0 mm
12:48 12.4 °C 11.3 °C 1023.6 hPa WNW 1.9 km/h   93 % 0 mm
12:57 12.7 °C 11.4 °C 1023.6 hPa NW 3.7 km/h   92 % 0 mm
13:04 12.8 °C 11.4 °C 1023.6 hPa Calm     91 % 0 mm
13:22 12.3 °C 11 °C 1023.6 hPa NNW 3.7 km/h 3.7 km/h 92 % 0 mm
13:41 12.3 °C 10.8 °C 1023.2 hPa SE 1.9 km/h 1.9 km/h 91 % 0 mm
13:48 12.2 °C 10.8 °C 1023.6 hPa WNW 1.9 km/h   91 % 0 mm
14:24 12.8 °C 11.2 °C 1023.2 hPa NNW 1.9 km/h   90 % 0 mm
14:36 12.8 °C 11 °C 1023.2 hPa Calm     89 % 0 mm
14:46 12.9 °C 11.3 °C 1023.2 hPa NNW 1.9 km/h   90 % 0 mm
15:05 13.2 °C 11.4 °C 1022.9 hPa Calm     89 % 0 mm
15:14 13.3 °C 11.6 °C 1022.9 hPa Calm     89 % 0 mm
15:24 13.3 °C 11.5 °C 1022.9 hPa SE 1.9 km/h 1.9 km/h 89 % 0 mm
15:30 13.2 °C 11.4 °C 1022.9 hPa Calm     89 % 0 mm
15:48 12.9 °C 11.3 °C 1023.2 hPa Calm     90 % 0 mm
16:04 12.6 °C 11.1 °C 1022.9 hPa Calm     91 % 0 mm
16:10 12.4 °C 10.9 °C 1022.9 hPa Calm     91 % 0 mm
16:25 12.1 °C 10.8 °C 1022.9 hPa Calm     92 % 0 mm
16:32 11.9 °C 10.6 °C 1022.9 hPa Calm     92 % 0 mm
16:40 11.8 °C 10.7 °C 1022.9 hPa Calm     93 % 0 mm
16:47 11.6 °C 10.5 °C 1022.9 hPa Calm     93 % 0 mm
17:06 11.2 °C 10.2 °C 1023.2 hPa Calm     94 % 0 mm
17:25 10.9 °C 10.2 °C 1022.9 hPa Calm     95 % 0 mm
17:31 10.9 °C 10.1 °C 1022.9 hPa Calm     95 % 0 mm
17:44 10.9 °C 10.1 °C 1023.2 hPa East 1.9 km/h   95 % 0 mm
17:52 11 °C 10.4 °C 1023.6 hPa West 1.9 km/h 1.9 km/h 96 % 0 mm
18:07 11.1 °C 10.4 °C 1023.6 hPa Calm   0.3 km/h 96 % 0 mm
18:12 11.1 °C 10.4 °C 1023.2 hPa Calm     96 % 0 mm
18:19 11.1 °C 10.5 °C 1023.2 hPa Calm     96 % 0 mm
19:01 11.1 °C 10.4 °C 1023.9 hPa Calm     96 % 0 mm
19:08 11.1 °C 10.4 °C 1023.9 hPa SE 1.9 km/h   96 % 0 mm
19:24 11 °C 10.4 °C 1023.9 hPa Calm     96 % 0 mm
19:30 11 °C 10.4 °C 1023.9 hPa Calm   0.2 km/h 96 % 0 mm
19:36 11 °C 10.4 °C 1023.9 hPa Calm     96 % 0 mm
19:52 11.1 °C 10.4 °C 1023.9 hPa SE 1.9 km/h   96 % 0 mm
20:15 11 °C 10.4 °C 1023.6 hPa East 1.9 km/h 1.9 km/h 96 % 0 mm
20:22 11 °C 10.4 °C 1023.6 hPa East 1.9 km/h   96 % 0 mm
20:29 10.9 °C 10.3 °C 1023.6 hPa Calm     96 % 0 mm
20:54 10.6 °C 10 °C 1023.6 hPa East 1.9 km/h 1.9 km/h 96 % 0 mm
21:03 10.7 °C 10.1 °C 1023.6 hPa Calm     96 % 0 mm
21:11 10.6 °C 10 °C 1023.6 hPa Calm     96 % 0 mm
21:17 10.6 °C 9.9 °C 1023.9 hPa Calm     96 % 0 mm
21:48 10.3 °C 9.9 °C 1023.9 hPa Calm     97 % 0 mm
21:57 10.4 °C 10 °C 1023.9 hPa Calm     97 % 0 mm
22:06 10.5 °C 10.1 °C 1023.9 hPa Calm     97 % 0 mm
22:18 10.5 °C 10.1 °C 1024.3 hPa NW 1.9 km/h 1.9 km/h 97 % 0 mm
22:37 10.5 °C 10.1 °C 1024.6 hPa WNW 3.7 km/h 3.7 km/h 97 % 0 mm
22:46 10.6 °C 10.1 °C 1024.3 hPa WNW 1.9 km/h 1.9 km/h 97 % 0 mm
22:55 10.5 °C 10.1 °C 1024.6 hPa Calm   0.5 km/h 97 % 0 mm
23:16 10.4 °C 10 °C 1024.6 hPa Calm     97 % 0 mm
23:38 10.2 °C 9.8 °C 1024.6 hPa Calm     97 % 0 mm
23:49 10.2 °C 9.7 °C 1024.6 hPa Calm     97 % 0 mm
Park Place, Exeter, Tulare County, California, USA
Compliments of Weather Underground - 1.75 mb